Time;durP1;ratioP1;P1;durP2;ratioP2;P2;SDS_P1;SDS_P2;PMS_P1;PMS_P2;Temp;Humidity;BMP_temperature;BMP_pressure;BME280_temperature;BME280_humidity;BME280_pressure;Samples;Min_cycle;Max_cycle;Signal;HPM_P1;HPM_P2
2023/06/21 00:01:40;;;;;;;11.60;3.75;;;25.10;1.00;;;;;;4916148;29;20078;-53
2023/06/21 00:04:08;;;;;;;5.60;3.95;;;25.00;1.00;;;;;;4909672;29;20044;-56
2023/06/21 00:06:38;;;;;;;8.05;3.55;;;25.00;1.00;;;;;;4914114;29;20036;-55
2023/06/21 00:09:05;;;;;;;6.00;3.30;;;25.00;1.00;;;;;;4915687;29;20039;-57
2023/06/21 00:11:32;;;;;;;6.20;3.72;;;25.00;1.00;;;;;;4915493;29;20052;-57
2023/06/21 00:13:59;;;;;;;4.50;3.42;;;25.00;1.00;;;;;;4915314;29;20066;-58
2023/06/21 00:16:26;;;;;;;7.10;3.58;;;25.00;1.00;;;;;;4915539;29;20036;-54
2023/06/21 00:18:53;;;;;;;7.38;4.22;;;25.00;1.00;;;;;;4915591;29;20145;-57
2023/06/21 00:21:20;;;;;;;9.15;3.55;;;25.00;1.00;;;;;;4917103;29;20046;-57
2023/06/21 00:23:46;;;;;;;6.40;3.25;;;25.00;1.00;;;;;;4915840;29;20051;-57
2023/06/21 00:26:13;;;;;;;4.10;3.28;;;25.00;1.00;;;;;;4900641;29;20049;-54
2023/06/21 00:28:40;;;;;;;7.88;4.15;;;25.00;1.00;;;;;;4900193;29;20044;-56
2023/06/21 00:31:10;;;;;;;4.70;3.13;;;25.00;1.00;;;;;;4899123;29;20552;-57
2023/06/21 00:33:38;;;;;;;4.70;3.10;;;25.00;1.00;;;;;;4900244;29;20055;-53
2023/06/21 00:36:05;;;;;;;6.40;3.30;;;25.00;1.00;;;;;;4899344;29;20132;-57
2023/06/21 00:38:34;;;;;;;6.10;3.72;;;25.00;1.00;;;;;;4899194;29;20059;-57
2023/06/21 00:41:04;;;;;;;6.30;3.75;;;25.00;1.00;;;;;;4898772;29;20497;-56
2023/06/21 00:43:32;;;;;;;7.00;3.67;;;25.00;1.00;;;;;;4899949;29;20104;-57
2023/06/21 00:45:59;;;;;;;6.13;3.75;;;24.90;1.00;;;;;;4898828;29;20059;-56
2023/06/21 00:48:28;;;;;;;7.10;3.42;;;24.90;1.00;;;;;;4898921;29;20041;-53
2023/06/21 00:50:57;;;;;;;10.70;3.15;;;24.90;1.00;;;;;;4898886;29;20505;-57
2023/06/21 00:53:40;;;;;;;6.15;3.67;;;24.90;1.00;;;;;;4899905;29;20044;-57
2023/06/21 00:56:07;;;;;;;6.97;2.85;;;24.90;1.00;;;;;;4911746;29;20055;-54
2023/06/21 00:58:34;;;;;;;4.13;3.20;;;24.90;1.00;;;;;;4898809;29;20037;-50
2023/06/21 01:01:00;;;;;;;4.63;3.35;;;24.90;1.00;;;;;;4911173;29;20037;-50
2023/06/21 01:03:28;;;;;;;3.85;3.00;;;24.90;1.00;;;;;;4879724;29;20045;-53
2023/06/21 01:06:08;;;;;;;5.50;3.33;;;24.90;1.00;;;;;;4881199;29;20040;-50
2023/06/21 01:09:10;;;;;;;4.47;2.95;;;24.90;1.00;;;;;;4879839;29;20045;-50
2023/06/21 01:11:57;;;;;;;6.40;3.35;;;24.90;1.00;;;;;;4879703;29;20056;-53
2023/06/21 01:14:39;;;;;;;3.28;2.55;;;24.80;1.00;;;;;;4879622;29;20131;-50
2023/06/21 01:17:09;;;;;;;4.50;3.28;;;24.80;1.00;;;;;;4879771;29;20053;-50
2023/06/21 01:19:52;;;;;;;8.02;3.38;;;24.80;1.00;;;;;;4879631;29;20505;-50
2023/06/21 01:22:22;;;;;;;;;;;24.80;1.00;;;;;;4878975;29;20574;-50
2023/06/21 01:25:21;;;;;;;4.32;2.70;;;24.80;1.00;;;;;;4974532;23;20345;-50
2023/06/21 01:27:58;;;;;;;5.22;2.42;;;24.80;1.00;;;;;;4928282;29;20555;-50
2023/06/21 01:30:26;;;;;;;5.82;3.78;;;24.80;1.00;;;;;;4941163;29;20058;-51
2023/06/21 01:32:54;;;;;;;6.55;2.97;;;24.80;1.00;;;;;;4954841;28;20053;-50
2023/06/21 01:35:24;;;;;;;5.72;3.65;;;24.80;1.00;;;;;;4955142;29;20538;-50
2023/06/21 01:37:51;;;;;;;3.58;2.83;;;24.80;1.00;;;;;;4956383;28;20094;-51
2023/06/21 01:40:19;;;;;;;3.55;2.40;;;24.80;1.00;;;;;;4956546;28;20036;-50
2023/06/21 01:42:46;;;;;;;4.90;3.10;;;24.80;1.00;;;;;;4954570;29;20106;-50
2023/06/21 01:45:13;;;;;;;4.15;2.65;;;24.80;1.00;;;;;;4954869;29;20054;-50
2023/06/21 01:47:42;;;;;;;3.40;2.03;;;24.80;1.00;;;;;;4954844;29;20047;-50
2023/06/21 01:50:11;;;;;;;5.78;2.60;;;24.80;1.00;;;;;;4954758;29;20391;-51
2023/06/21 01:52:39;;;;;;;3.35;2.55;;;24.80;1.00;;;;;;4955829;28;20075;-52
2023/06/21 01:55:08;;;;;;;4.88;2.25;;;24.80;1.00;;;;;;4955742;28;20035;-50
2023/06/21 01:57:35;;;;;;;7.30;2.45;;;24.70;1.00;;;;;;4938485;28;20055;-50
2023/06/21 02:00:17;;;;;;;4.93;2.95;;;24.70;1.00;;;;;;4935482;29;20099;-51
2023/06/21 02:02:55;;;;;;;5.15;2.72;;;24.70;1.00;;;;;;4935252;29;20040;-50
2023/06/21 02:05:22;;;;;;;8.18;2.65;;;24.70;1.00;;;;;;4935387;29;20452;-50
2023/06/21 02:07:51;;;;;;;4.80;2.22;;;24.70;1.00;;;;;;4935463;29;20039;-50
2023/06/21 02:10:19;;;;;;;7.38;2.25;;;24.70;1.00;;;;;;4935255;29;20123;-50
2023/06/21 02:12:52;;;;;;;6.65;3.60;;;24.70;1.00;;;;;;4934974;29;20052;-50
2023/06/21 02:15:19;;;;;;;4.63;2.40;;;24.70;1.00;;;;;;4935323;29;20079;-50
2023/06/21 02:17:51;;;;;;;4.53;2.40;;;24.70;1.00;;;;;;4935000;29;20075;-50
2023/06/21 02:20:22;;;;;;;6.28;2.97;;;24.70;1.00;;;;;;4936283;29;20452;-52
2023/06/21 02:22:49;;;;;;;4.40;2.08;;;24.70;1.00;;;;;;4947553;29;20047;-49
2023/06/21 02:28:10;;;;;;;6.85;2.25;;;24.70;1.00;;;;;;5093629;23;20048;-50
2023/06/21 02:30:36;;;;;;;5.45;2.45;;;24.60;1.00;;;;;;4931613;29;20058;-51
2023/06/21 02:33:03;;;;;;;5.60;2.80;;;24.60;1.00;;;;;;4915715;29;20036;-49
2023/06/21 02:35:30;;;;;;;7.80;2.88;;;24.70;1.00;;;;;;4915795;29;20040;-50
2023/06/21 02:37:57;;;;;;;5.55;2.08;;;24.60;1.00;;;;;;4915753;29;20044;-50
2023/06/21 02:40:24;;;;;;;3.55;2.13;;;24.60;1.00;;;;;;4915503;29;20040;-50
2023/06/21 02:42:52;;;;;;;4.82;2.20;;;24.60;1.00;;;;;;4916716;29;20048;-50
2023/06/21 02:45:19;;;;;;;5.40;1.92;;;24.60;1.00;;;;;;4916706;29;20047;-50
2023/06/21 02:47:46;;;;;;;3.20;1.75;;;24.60;1.00;;;;;;4916957;29;20504;-51
2023/06/21 02:50:16;;;;;;;5.28;2.20;;;24.60;1.00;;;;;;4915342;29;20043;-50
2023/06/21 02:52:43;;;;;;;7.18;2.05;;;24.60;1.00;;;;;;4916548;29;20575;-51
2023/06/21 02:55:10;;;;;;;5.20;2.13;;;24.60;1.00;;;;;;4916723;29;20468;-52
2023/06/21 02:57:37;;;;;;;5.70;2.22;;;24.60;1.00;;;;;;4915725;29;20051;-50
2023/06/21 03:00:28;;;;;;;5.72;1.95;;;24.60;1.00;;;;;;4971745;23;20055;-52
2023/06/21 03:02:59;;;;;;;4.65;1.80;;;24.60;1.00;;;;;;4916517;29;20042;-51
2023/06/21 03:05:28;;;;;;;3.17;1.67;;;24.60;1.00;;;;;;4916667;29;20117;-49
2023/06/21 03:07:56;;;;;;;3.08;1.77;;;24.60;1.00;;;;;;4915309;29;20416;-50
2023/06/21 03:10:23;;;;;;;4.43;2.03;;;24.60;1.00;;;;;;4915070;29;20348;-49
2023/06/21 03:12:50;;;;;;;4.20;1.83;;;24.60;1.00;;;;;;4914743;29;20512;-49
2023/06/21 03:15:20;;;;;;;6.38;1.88;;;24.50;1.00;;;;;;4913745;29;20047;-49
2023/06/21 03:17:48;;;;;;;4.88;2.30;;;24.50;1.00;;;;;;4915588;29;20067;-49
2023/06/21 03:20:15;;;;;;;3.65;2.15;;;24.50;1.00;;;;;;4914804;29;20050;-50
2023/06/21 03:22:44;;;;;;;4.43;1.60;;;24.50;1.00;;;;;;4915247;29;20060;-49
2023/06/21 03:25:12;;;;;;;4.78;2.25;;;24.50;1.00;;;;;;4914813;29;20040;-49
2023/06/21 03:27:42;;;;;;;7.03;2.03;;;24.50;1.00;;;;;;4914569;29;20116;-50
2023/06/21 03:30:11;;;;;;;5.20;2.20;;;24.50;1.00;;;;;;4898230;29;20040;-51
2023/06/21 03:32:48;;;;;;;3.28;1.33;;;24.50;1.00;;;;;;4914266;29;20504;-50
2023/06/21 03:35:18;;;;;;;8.73;1.75;;;24.50;1.00;;;;;;4914432;29;20051;-51
2023/06/21 03:37:47;;;;;;;3.03;1.95;;;24.50;1.00;;;;;;4914564;29;20457;-49
2023/06/21 03:40:18;;;;;;;8.98;2.00;;;24.50;1.00;;;;;;4914534;29;20579;-49
2023/06/21 03:42:45;;;;;;;4.70;2.55;;;24.50;1.00;;;;;;4896749;29;20052;-50
2023/06/21 03:45:13;;;;;;;5.30;1.92;;;24.40;1.00;;;;;;4895631;29;20044;-49
2023/06/21 03:47:47;;;;;;;4.90;1.75;;;24.50;1.00;;;;;;4881093;29;20057;-51
2023/06/21 03:50:16;;;;;;;3.55;1.50;;;24.40;1.00;;;;;;4895397;29;20044;-49
2023/06/21 03:52:45;;;;;;;3.70;1.70;;;24.40;1.00;;;;;;4895199;29;20063;-50
2023/06/21 03:55:12;;;;;;;4.25;1.63;;;24.40;1.00;;;;;;4900908;29;20040;-50
2023/06/21 03:57:39;;;;;;;3.40;1.63;;;24.40;1.00;;;;;;4914531;29;20052;-49
2023/06/21 04:00:06;;;;;;;4.18;1.83;;;24.40;1.00;;;;;;4956737;23;20116;-49
2023/06/21 04:02:41;;;;;;;4.75;1.88;;;24.40;1.00;;;;;;4926445;29;20047;-49
2023/06/21 04:05:11;;;;;;;5.60;2.60;;;24.40;1.00;;;;;;4933269;29;20039;-50
2023/06/21 04:07:38;;;;;;;5.53;1.88;;;24.40;1.00;;;;;;4932984;29;20099;-49
2023/06/21 04:10:05;;;;;;;3.78;1.63;;;24.40;1.00;;;;;;4921012;29;20044;-51
2023/06/21 04:12:32;;;;;;;5.80;2.20;;;24.40;1.00;;;;;;4923466;29;20534;-49
2023/06/21 04:15:03;;;;;;;8.80;2.53;;;24.40;1.00;;;;;;4911224;29;20067;-50
2023/06/21 04:17:31;;;;;;;7.27;3.20;;;24.40;1.00;;;;;;4909009;29;20059;-49
2023/06/21 04:19:58;;;;;;;7.32;2.40;;;24.40;1.00;;;;;;4918421;29;20373;-49
2023/06/21 04:22:26;;;;;;;14.05;2.78;;;24.30;1.00;;;;;;4923985;29;20043;-50
2023/06/21 04:24:53;;;;;;;12.05;2.65;;;24.30;1.00;;;;;;4922074;29;20452;-49
2023/06/21 04:27:22;;;;;;;10.52;2.53;;;24.30;1.00;;;;;;4915746;29;20440;-50
2023/06/21 04:29:49;;;;;;;10.55;1.90;;;24.20;1.00;;;;;;4930323;29;20043;-50
2023/06/21 04:32:16;;;;;;;5.18;2.95;;;24.30;1.00;;;;;;4923834;29;20099;-49
2023/06/21 04:34:43;;;;;;;10.50;3.08;;;24.20;1.00;;;;;;4918169;29;20062;-51
2023/06/21 04:37:10;;;;;;;8.77;2.05;;;24.30;1.00;;;;;;4934150;29;20115;-49
2023/06/21 04:39:37;;;;;;;14.10;2.67;;;24.20;1.00;;;;;;4934595;29;20044;-51
2023/06/21 04:42:04;;;;;;;6.90;1.85;;;24.20;1.00;;;;;;4933633;29;20032;-49
2023/06/21 04:44:31;;;;;;;12.10;2.55;;;24.20;1.00;;;;;;4934049;29;20036;-49
2023/06/21 04:47:00;;;;;;;14.45;2.28;;;24.20;1.00;;;;;;4934155;29;20040;-50
2023/06/21 04:49:29;;;;;;;10.07;2.42;;;24.20;1.00;;;;;;4934172;29;20393;-49
2023/06/21 04:51:57;;;;;;;5.07;1.38;;;24.20;1.00;;;;;;4933760;29;20047;-49
2023/06/21 04:54:25;;;;;;;6.15;1.95;;;24.20;1.00;;;;;;4918946;29;20044;-49
2023/06/21 04:56:52;;;;;;;8.50;1.90;;;24.20;1.00;;;;;;4933754;29;20047;-49
2023/06/21 04:59:19;;;;;;;6.07;1.73;;;24.20;1.00;;;;;;4934273;29;20043;-50
2023/06/21 05:01:46;;;;;;;7.47;2.03;;;24.20;1.00;;;;;;5247421;23;20052;-52
2023/06/21 05:04:13;;;;;;;6.53;2.22;;;24.20;1.00;;;;;;4952408;28;20047;-50
2023/06/21 05:06:42;;;;;;;10.77;2.40;;;24.20;1.00;;;;;;4953649;28;20423;-52
2023/06/21 05:09:09;;;;;;;5.25;2.05;;;24.20;1.00;;;;;;4956703;28;20043;-50
2023/06/21 05:11:37;;;;;;;8.90;3.25;;;24.20;1.00;;;;;;4956299;28;20047;-51
2023/06/21 05:14:04;;;;;;;8.93;1.75;;;24.20;1.00;;;;;;4956327;29;20046;-52
2023/06/21 05:16:31;;;;;;;7.05;1.88;;;24.20;1.00;;;;;;4956373;28;20067;-51
2023/06/21 05:18:58;;;;;;;4.22;1.55;;;24.20;1.00;;;;;;4956323;28;20400;-52
2023/06/21 05:21:24;;;;;;;5.32;2.40;;;24.20;1.00;;;;;;4956023;28;20133;-52
2023/06/21 05:23:51;;;;;;;6.50;2.28;;;24.20;1.00;;;;;;4945358;29;20051;-51
2023/06/21 05:26:18;;;;;;;5.60;1.60;;;24.20;1.00;;;;;;4937418;29;20238;-51
2023/06/21 05:28:45;;;;;;;4.28;1.55;;;24.20;1.00;;;;;;4938079;29;20063;-51
2023/06/21 05:31:11;;;;;;;6.65;1.83;;;24.20;1.00;;;;;;4937250;29;20047;-51
2023/06/21 05:33:38;;;;;;;5.25;1.75;;;24.20;1.00;;;;;;5037429;23;20018;-50
2023/06/21 05:36:05;;;;;;;3.63;2.55;;;24.20;1.00;;;;;;4940184;29;20040;-52
2023/06/21 05:38:32;;;;;;;6.88;2.70;;;24.10;1.00;;;;;;4940023;29;20047;-51
2023/06/21 05:40:59;;;;;;;5.75;2.38;;;24.20;1.00;;;;;;4940084;29;20082;-51
2023/06/21 05:43:26;;;;;;;6.00;2.40;;;24.20;1.00;;;;;;4937448;29;20039;-51
2023/06/21 05:45:53;;;;;;;6.45;1.48;;;24.10;1.00;;;;;;4941056;29;20051;-52
2023/06/21 05:48:20;;;;;;;4.32;1.90;;;24.10;1.00;;;;;;4938118;29;20035;-52
2023/06/21 05:50:47;;;;;;;3.67;1.60;;;24.20;1.00;;;;;;4936526;29;20082;-51
2023/06/21 05:53:13;;;;;;;4.68;1.83;;;24.10;1.00;;;;;;4936745;29;20440;-51
2023/06/21 05:55:40;;;;;;;8.07;2.13;;;24.10;1.00;;;;;;4936878;29;20050;-53
2023/06/21 05:58:07;;;;;;;5.63;1.65;;;24.20;1.00;;;;;;4940351;29;20119;-51
2023/06/21 06:00:34;;;;;;;5.30;1.80;;;24.20;1.00;;;;;;4941356;29;20043;-53
2023/06/21 06:03:01;;;;;;;6.20;1.83;;;24.10;1.00;;;;;;4941651;29;20119;-52
2023/06/21 06:05:28;;;;;;;5.03;1.70;;;24.20;1.00;;;;;;5005731;23;20058;-51
2023/06/21 06:07:55;;;;;;;3.88;1.48;;;24.20;1.00;;;;;;4922308;29;20486;-51
2023/06/21 06:10:22;;;;;;;5.72;2.00;;;24.20;1.00;;;;;;4921747;29;20059;-51
2023/06/21 06:12:48;;;;;;;5.63;2.10;;;24.20;1.00;;;;;;4922652;29;20128;-51
2023/06/21 06:15:15;;;;;;;7.68;1.85;;;24.20;1.00;;;;;;4922671;29;20591;-52
2023/06/21 06:17:42;;;;;;;8.38;2.03;;;24.20;1.00;;;;;;4921783;29;20047;-51
2023/06/21 06:20:10;;;;;;;4.07;1.88;;;24.20;1.00;;;;;;4921433;29;20036;-51
2023/06/21 06:22:37;;;;;;;6.80;1.73;;;24.20;1.00;;;;;;4919435;29;20095;-52
2023/06/21 06:25:04;;;;;;;8.38;2.45;;;24.20;1.00;;;;;;4917178;29;20121;-54
2023/06/21 06:27:31;;;;;;;3.33;1.50;;;24.20;1.00;;;;;;4917105;29;20059;-54
2023/06/21 06:29:58;;;;;;;7.80;2.05;;;24.20;1.00;;;;;;4917032;29;20115;-54
2023/06/21 06:32:27;;;;;;;3.60;1.63;;;24.20;1.00;;;;;;4916564;29;20068;-51
2023/06/21 06:34:54;;;;;;;4.13;2.08;;;24.20;1.00;;;;;;4916321;29;20056;-53
2023/06/21 06:37:24;;;;;;;5.10;1.75;;;24.20;1.00;;;;;;4917081;29;20119;-51
2023/06/21 06:39:57;;;;;;;5.95;1.38;;;24.20;1.00;;;;;;4916759;29;20047;-56
2023/06/21 06:42:24;;;;;;;5.07;1.52;;;24.30;1.00;;;;;;4916522;29;20040;-56
2023/06/21 06:44:52;;;;;;;4.80;2.08;;;24.30;1.00;;;;;;4916534;29;20044;-55
2023/06/21 06:47:19;;;;;;;4.15;1.67;;;24.20;1.00;;;;;;4916821;29;20172;-52
2023/06/21 06:49:46;;;;;;;5.60;1.42;;;24.20;1.00;;;;;;4916562;29;20415;-51
2023/06/21 06:52:13;;;;;;;3.88;2.08;;;24.30;1.00;;;;;;4916366;29;20055;-52
2023/06/21 06:54:40;;;;;;;5.63;2.05;;;24.30;1.00;;;;;;4916494;29;20051;-52
2023/06/21 06:57:07;;;;;;;4.53;1.90;;;24.30;1.00;;;;;;4916622;29;20171;-52
2023/06/21 06:59:41;;;;;;;5.28;1.85;;;24.30;1.00;;;;;;4916735;29;20044;-55
2023/06/21 07:02:08;;;;;;;3.47;1.60;;;24.30;1.00;;;;;;4916922;29;20075;-54
2023/06/21 07:04:35;;;;;;;4.80;1.70;;;24.30;1.00;;;;;;4916269;29;20123;-51
2023/06/21 07:07:06;;;;;;;4.68;1.92;;;24.30;1.00;;;;;;5477945;23;20044;-53
2023/06/21 07:09:33;;;;;;;6.00;1.73;;;24.30;1.00;;;;;;4934839;29;20048;-53
2023/06/21 07:12:01;;;;;;;7.20;2.05;;;24.30;1.00;;;;;;4935065;29;20047;-52
2023/06/21 07:14:28;;;;;;;4.88;1.90;;;24.30;1.00;;;;;;4935185;29;20047;-53
2023/06/21 07:16:55;;;;;;;3.00;1.65;;;24.30;1.00;;;;;;4935110;29;20055;-54
2023/06/21 07:19:22;;;;;;;7.18;1.70;;;24.30;1.00;;;;;;4935148;29;20054;-54
2023/06/21 07:21:49;;;;;;;5.10;1.60;;;24.40;1.00;;;;;;4934559;29;20428;-52
2023/06/21 07:24:16;;;;;;;6.18;1.45;;;24.40;1.00;;;;;;4934925;29;20039;-50
2023/06/21 07:26:43;;;;;;;4.55;1.80;;;24.40;1.00;;;;;;4934824;29;20067;-53
2023/06/21 07:29:10;;;;;;;4.03;1.65;;;24.40;1.00;;;;;;4934751;29;20122;-57
2023/06/21 07:31:37;;;;;;;3.83;1.48;;;24.40;1.00;;;;;;4935166;29;20050;-58
2023/06/21 07:34:07;;;;;;;2.88;1.60;;;24.40;1.00;;;;;;4934550;29;20036;-52
2023/06/21 07:36:36;;;;;;;3.42;1.67;;;24.40;1.00;;;;;;4934954;29;20085;-54
2023/06/21 07:39:08;;;;;;;3.67;2.10;;;24.40;1.00;;;;;;5064846;23;20548;-53
2023/06/21 07:41:34;;;;;;;3.13;1.65;;;24.40;1.00;;;;;;4915651;29;20048;-53
2023/06/21 07:44:02;;;;;;;6.38;1.60;;;24.40;1.00;;;;;;4915177;29;20091;-53
2023/06/21 07:46:29;;;;;;;7.53;2.10;;;24.40;1.00;;;;;;4915657;29;20437;-56
2023/06/21 07:48:55;;;;;;;5.00;1.85;;;24.40;1.00;;;;;;4915238;29;20127;-53
2023/06/21 07:51:22;;;;;;;4.15;2.40;;;24.40;1.00;;;;;;4915396;29;20044;-53
2023/06/21 07:53:49;;;;;;;6.15;2.03;;;24.40;1.00;;;;;;4915308;29;20066;-53
2023/06/21 07:56:16;;;;;;;2.88;1.55;;;24.40;1.00;;;;;;4915579;29;20036;-51
2023/06/21 07:58:43;;;;;;;5.07;2.30;;;24.40;1.00;;;;;;4915359;29;20098;-55
2023/06/21 08:01:12;;;;;;;3.90;2.10;;;24.40;1.00;;;;;;4915501;29;20068;-57
2023/06/21 08:03:40;;;;;;;3.55;1.98;;;24.40;1.00;;;;;;4915034;29;20514;-55
2023/06/21 08:06:07;;;;;;;5.00;1.52;;;24.40;1.00;;;;;;4915372;29;20040;-52
2023/06/21 08:08:34;;;;;;;3.70;1.50;;;24.40;1.00;;;;;;5000748;23;20115;-51
2023/06/21 08:11:00;;;;;;;3.78;1.52;;;24.40;1.00;;;;;;4951673;29;20043;-52
2023/06/21 08:13:27;;;;;;;3.42;1.85;;;24.40;1.00;;;;;;4953316;28;20123;-54
2023/06/21 08:15:54;;;;;;;3.70;1.48;;;24.40;1.00;;;;;;4953455;28;20051;-53
2023/06/21 08:18:21;;;;;;;5.70;1.83;;;24.40;1.00;;;;;;4953335;28;20036;-57
2023/06/21 08:20:48;;;;;;;3.53;2.25;;;24.40;1.00;;;;;;4953094;28;20043;-51
2023/06/21 08:23:14;;;;;;;2.67;1.70;;;24.40;1.00;;;;;;4953061;29;20036;-50
2023/06/21 08:25:41;;;;;;;5.90;1.88;;;24.40;1.00;;;;;;4953304;28;20070;-50
2023/06/21 08:28:08;;;;;;;4.07;1.65;;;24.40;1.00;;;;;;4953404;28;20562;-51
2023/06/21 08:30:35;;;;;;;3.75;1.75;;;24.40;1.00;;;;;;4953242;29;20055;-51
2023/06/21 08:33:02;;;;;;;5.05;1.52;;;24.40;1.00;;;;;;4953237;28;20407;-51
2023/06/21 08:35:30;;;;;;;3.55;1.65;;;24.40;1.00;;;;;;4953255;28;20122;-57
2023/06/21 08:37:59;;;;;;;4.15;1.50;;;24.40;1.00;;;;;;4953295;28;20415;-52
2023/06/21 08:40:37;;;;;;;6.57;1.63;;;24.40;1.00;;;;;;4986444;23;20572;-57
2023/06/21 08:43:04;;;;;;;4.70;1.27;;;24.40;1.00;;;;;;4917637;29;20036;-57
2023/06/21 08:45:31;;;;;;;5.88;2.22;;;24.40;1.00;;;;;;4918881;29;20063;-51
2023/06/21 08:48:02;;;;;;;8.00;2.03;;;24.40;1.00;;;;;;4918855;29;20046;-57
2023/06/21 08:50:30;;;;;;;4.55;1.30;;;24.40;1.00;;;;;;4918710;29;20047;-57
2023/06/21 08:53:01;;;;;;;3.53;1.35;;;24.40;1.00;;;;;;4917183;29;20048;-57
2023/06/21 08:55:31;;;;;;;4.25;1.70;;;24.50;1.00;;;;;;4918612;29;20056;-57
2023/06/21 08:58:09;;;;;;;5.65;2.10;;;24.50;1.00;;;;;;4918642;29;20463;-57
2023/06/21 09:00:44;;;;;;;2.83;1.63;;;24.40;1.00;;;;;;4918658;29;20147;-52
2023/06/21 09:03:24;;;;;;;6.13;2.00;;;24.50;1.00;;;;;;4918415;29;20063;-57
2023/06/21 09:06:00;;;;;;;3.50;1.67;;;24.40;1.00;;;;;;4918408;29;20047;-57
2023/06/21 09:08:27;;;;;;;3.65;1.90;;;24.50;1.00;;;;;;4918564;29;20114;-57
2023/06/21 09:10:55;;;;;;;4.80;1.50;;;24.50;1.00;;;;;;4918481;29;20557;-55
2023/06/21 09:13:24;;;;;;;4.20;1.80;;;24.50;1.00;;;;;;4923539;29;20424;-56
2023/06/21 09:15:52;;;;;;;3.42;1.38;;;24.50;1.00;;;;;;4937314;29;20139;-57
2023/06/21 09:18:19;;;;;;;4.78;1.48;;;24.50;1.00;;;;;;4937271;29;20554;-57
2023/06/21 09:20:48;;;;;;;3.30;1.75;;;24.50;1.00;;;;;;4937092;29;20059;-55
2023/06/21 09:23:16;;;;;;;4.93;1.60;;;24.50;1.00;;;;;;4936938;29;20047;-57
2023/06/21 09:25:44;;;;;;;4.82;1.55;;;24.50;1.00;;;;;;4937308;29;20079;-56
2023/06/21 09:28:12;;;;;;;4.35;1.75;;;24.50;1.00;;;;;;4937253;29;20040;-57
2023/06/21 09:30:39;;;;;;;2.90;1.50;;;24.50;1.00;;;;;;4936991;29;20044;-57
2023/06/21 09:33:08;;;;;;;3.58;1.70;;;24.50;1.00;;;;;;4936933;29;20083;-57
2023/06/21 09:35:38;;;;;;;5.80;2.20;;;24.50;1.00;;;;;;4937131;29;20052;-54
2023/06/21 09:38:25;;;;;;;5.03;1.70;;;24.50;1.00;;;;;;4935871;29;20045;-52
2023/06/21 09:43:24;;;;;;;;;;;24.50;1.00;;;;;;4897686;29;20457;-53
2023/06/21 09:45:59;;;;;;;3.67;1.50;;;24.50;1.00;;;;;;4913319;29;20013;-54
2023/06/21 09:48:26;;;;;;;4.68;1.83;;;24.50;1.00;;;;;;4898804;29;20045;-53
2023/06/21 09:50:56;;;;;;;3.22;1.60;;;24.50;1.00;;;;;;4906233;29;20040;-53
2023/06/21 09:53:26;;;;;;;5.43;1.73;;;24.50;1.00;;;;;;4916282;29;20575;-52
2023/06/21 09:55:56;;;;;;;4.43;2.03;;;24.50;1.00;;;;;;4917758;29;20100;-53
2023/06/21 09:58:23;;;;;;;2.97;1.38;;;24.50;1.00;;;;;;4917885;29;20046;-57
2023/06/21 10:00:50;;;;;;;3.30;1.27;;;24.50;1.00;;;;;;4917321;29;20493;-57
2023/06/21 10:03:25;;;;;;;4.18;1.73;;;24.50;1.00;;;;;;4917294;29;20044;-56
2023/06/21 10:05:56;;;;;;;3.95;1.20;;;24.50;1.00;;;;;;4917483;29;20377;-57
2023/06/21 10:08:28;;;;;;;5.38;1.63;;;24.50;1.00;;;;;;4917574;29;20036;-54
2023/06/21 10:10:55;;;;;;;5.57;2.00;;;24.50;1.00;;;;;;4917374;29;20071;-54
2023/06/21 10:13:48;;;;;;;8.82;2.10;;;24.50;1.00;;;;;;5009412;23;20094;-56
2023/06/21 10:16:17;;;;;;;6.07;2.00;;;24.50;1.00;;;;;;4915671;29;20055;-56
2023/06/21 10:18:46;;;;;;;3.20;1.33;;;24.60;1.00;;;;;;4917355;29;20630;-56
2023/06/21 10:21:15;;;;;;;7.32;1.98;;;24.50;1.00;;;;;;4917128;29;20165;-56
2023/06/21 10:23:42;;;;;;;5.20;1.60;;;24.50;1.00;;;;;;4900187;29;20059;-57
2023/06/21 10:26:14;;;;;;;5.15;1.73;;;24.50;1.00;;;;;;4917165;29;20037;-57
2023/06/21 10:28:45;;;;;;;4.32;1.58;;;24.50;1.00;;;;;;4917152;29;20496;-57
2023/06/21 10:31:12;;;;;;;6.20;2.42;;;24.50;1.00;;;;;;4916955;29;20099;-56
2023/06/21 10:33:40;;;;;;;6.22;1.60;;;24.50;1.00;;;;;;4916778;29;20131;-57
2023/06/21 10:36:12;;;;;;;4.88;1.48;;;24.50;1.00;;;;;;4917084;29;20062;-56
2023/06/21 10:38:47;;;;;;;3.97;1.65;;;24.50;1.00;;;;;;4916934;29;20048;-57
2023/06/21 10:41:15;;;;;;;3.65;1.58;;;24.50;1.00;;;;;;4916852;29;20043;-56
2023/06/21 10:43:43;;;;;;;6.22;2.08;;;24.50;1.00;;;;;;4966803;23;20051;-57
2023/06/21 10:46:11;;;;;;;3.30;1.55;;;24.50;1.00;;;;;;4917240;29;20560;-55
2023/06/21 10:48:39;;;;;;;5.65;1.70;;;24.50;1.00;;;;;;4917011;29;20060;-57
2023/06/21 10:51:07;;;;;;;4.93;1.92;;;24.60;1.00;;;;;;4914349;29;20123;-57
2023/06/21 10:53:35;;;;;;;6.43;1.45;;;24.50;1.00;;;;;;4897612;29;20052;-56
2023/06/21 10:56:07;;;;;;;3.53;1.73;;;24.50;1.00;;;;;;4897747;29;20167;-57
2023/06/21 10:58:34;;;;;;;3.60;2.07;;;24.50;1.00;;;;;;4897858;29;20044;-55
2023/06/21 11:01:01;;;;;;;4.60;1.70;;;24.60;1.00;;;;;;4897564;29;20048;-57
2023/06/21 11:03:28;;;;;;;3.63;1.65;;;24.50;1.00;;;;;;4897233;29;20044;-56
2023/06/21 11:06:24;;;;;;;5.03;1.88;;;24.50;1.00;;;;;;4897252;29;20044;-57
2023/06/21 11:08:51;;;;;;;2.42;1.42;;;24.50;1.00;;;;;;4897597;29;20527;-55
2023/06/21 11:11:32;;;;;;;2.78;1.90;;;24.50;1.00;;;;;;4897582;29;20069;-57
2023/06/21 11:14:02;;;;;;;5.70;1.98;;;24.50;1.00;;;;;;4910985;23;20048;31
2023/06/21 11:16:37;;;;;;;3.33;1.02;;;24.50;1.00;;;;;;4913921;29;20059;-56
2023/06/21 11:19:06;;;;;;;4.47;2.17;;;24.50;1.00;;;;;;4916311;29;20052;-56
2023/06/21 11:21:41;;;;;;;3.92;2.17;;;24.50;1.00;;;;;;4929220;29;20082;-54
2023/06/21 11:24:10;;;;;;;3.53;1.58;;;24.60;1.00;;;;;;4934776;29;20058;-55
2023/06/21 11:27:06;;;;;;;7.20;1.75;;;24.50;1.00;;;;;;4935115;29;20067;-57
2023/06/21 11:29:36;;;;;;;3.40;1.92;;;24.50;1.00;;;;;;4935155;29;20048;-56
2023/06/21 11:32:21;;;;;;;5.93;1.95;;;24.50;1.00;;;;;;4934581;29;20050;-56
2023/06/21 11:34:53;;;;;;;8.07;2.67;;;24.50;1.00;;;;;;4934962;29;20039;-57
2023/06/21 11:37:35;;;;;;;6.07;2.10;;;24.50;1.00;;;;;;4934982;29;20047;-56
2023/06/21 11:40:07;;;;;;;5.25;1.80;;;24.50;1.00;;;;;;4934769;29;20048;-53
2023/06/21 11:42:54;;;;;;;7.35;2.15;;;24.50;1.00;;;;;;4934615;29;20054;-57
2023/06/21 11:45:26;;;;;;;3.80;2.15;;;24.50;1.00;;;;;;4933994;29;20079;-57
2023/06/21 11:48:15;;;;;;;3.67;1.80;;;24.50;1.00;;;;;;4934451;29;20134;-56
2023/06/21 11:50:48;;;;;;;4.55;1.75;;;24.50;1.00;;;;;;4934662;29;20063;-57
2023/06/21 11:53:23;;;;;;;5.00;1.60;;;24.50;1.00;;;;;;4934358;29;20047;-57
2023/06/21 11:55:53;;;;;;;2.58;1.33;;;24.50;1.00;;;;;;4934562;29;20046;-58
2023/06/21 11:58:20;;;;;;;4.32;1.65;;;24.50;1.00;;;;;;4934509;29;20099;-56
2023/06/21 12:00:48;;;;;;;3.70;1.90;;;24.50;1.00;;;;;;4934493;29;20224;-57
2023/06/21 12:03:15;;;;;;;4.18;2.25;;;24.50;1.00;;;;;;4934091;29;20040;-56
2023/06/21 12:05:52;;;;;;;6.10;1.60;;;24.50;1.00;;;;;;4934585;29;20071;-57
2023/06/21 12:08:26;;;;;;;3.53;1.65;;;24.50;1.00;;;;;;4934525;29;20119;-56
2023/06/21 12:10:53;;;;;;;3.65;1.63;;;24.50;1.00;;;;;;4934402;29;20040;-56
2023/06/21 12:13:20;;;;;;;6.07;2.08;;;24.50;1.00;;;;;;4934316;29;20044;-53
2023/06/21 12:18:29;;;;;;;7.30;2.20;;;24.50;1.00;;;;;;4912019;29;19929;-58
2023/06/21 12:20:58;;;;;;;4.32;1.67;;;24.50;1.00;;;;;;4906435;29;20407;-56
2023/06/21 12:23:26;;;;;;;4.32;1.85;;;24.50;1.00;;;;;;4933735;29;20095;-58
2023/06/21 12:25:55;;;;;;;3.92;1.60;;;24.50;1.00;;;;;;4934401;29;20126;-58
2023/06/21 12:28:24;;;;;;;5.00;2.03;;;24.50;1.00;;;;;;4934276;29;20032;-57
2023/06/21 12:30:59;;;;;;;3.25;2.03;;;24.50;1.00;;;;;;4934150;29;20114;-58
2023/06/21 12:33:27;;;;;;;2.42;1.63;;;24.50;1.00;;;;;;4933965;29;20047;-58
2023/06/21 12:36:17;;;;;;;3.42;2.03;;;24.50;1.00;;;;;;4934088;29;20035;-54
2023/06/21 12:39:02;;;;;;;3.80;1.77;;;24.50;1.00;;;;;;4934123;29;20126;-58
2023/06/21 12:41:32;;;;;;;4.43;2.03;;;24.50;1.00;;;;;;4933980;29;20106;-58
2023/06/21 12:44:05;;;;;;;5.45;1.60;;;24.50;1.00;;;;;;4933732;29;20040;-57
2023/06/21 12:46:40;;;;;;;5.60;2.75;;;24.50;1.00;;;;;;4934148;29;20472;-54
2023/06/21 12:49:07;;;;;;;5.25;2.47;;;24.50;1.00;;;;;;5215859;23;20144;-56
2023/06/21 12:51:37;;;;;;;3.60;2.00;;;24.50;1.00;;;;;;4915035;29;20048;-57
2023/06/21 12:54:12;;;;;;;4.03;1.65;;;24.50;1.00;;;;;;4914730;29;20040;-58
2023/06/21 12:56:52;;;;;;;4.63;1.60;;;24.50;1.00;;;;;;4915119;29;20040;-57
2023/06/21 12:59:19;;;;;;;4.75;2.08;;;24.50;1.00;;;;;;4914993;29;20051;-57
2023/06/21 13:01:46;;;;;;;2.60;1.55;;;24.50;1.00;;;;;;4900601;29;20045;-58
2023/06/21 13:04:15;;;;;;;3.38;2.25;;;24.50;1.00;;;;;;4895799;29;20445;-58
2023/06/21 13:06:42;;;;;;;3.45;2.00;;;24.50;1.00;;;;;;4896036;29;20052;-58
2023/06/21 13:09:11;;;;;;;4.45;1.50;;;24.50;1.00;;;;;;4896224;29;20073;-57
2023/06/21 13:11:39;;;;;;;4.18;2.17;;;24.50;1.00;;;;;;4896303;29;20429;-56
2023/06/21 13:14:07;;;;;;;4.22;2.20;;;24.50;1.00;;;;;;4895834;29;20075;-58
2023/06/21 13:16:34;;;;;;;4.05;1.77;;;24.50;1.00;;;;;;4895951;29;20100;-57
2023/06/21 13:19:01;;;;;;;4.15;2.15;;;24.50;1.00;;;;;;4895944;29;20048;-57